Baie-Trinite, Canada
Current Conditions -  °F | °C
As of 4:23 PM on Monday 24 Nov 2014 (Local Time) from CYBC Reporting Station
Light Rain Light Rain  
Wind Chill: 32°   Ceiling: 1600
Heat Index: 39°   Visibility: 1.7mi
Dew Point: 39°   Wind: 10mph
Humidity: 100%   Direction: 90°E
Pressure: 29.43"   Gusts: NA
Location:  49.43°N, 67.28°W
Report Text: CYBC 242123Z AUTO 09009KT 1 3/4SM -RA BR OVC016 04/04 A2943 RMK PCPN 0.8MM PAST HR SLP967
Loading
Personal Weather Stations






























Interactive Weather Map New forecast layout! Learn more

10-Day Weather Forecast

Advertisements
Track Severe Weather on mobile